Time,TemperatureF,DewpointF,PressureIn,WindDirection,WindDirectionDegrees,WindSpeedMPH,WindSpeedGustMPH,Humidity,HourlyPrecipIn,Conditions,Clouds,dailyrainin,SoftwareType,DateUTC
2013-10-25 00:01:00,39.0,37.7,30.02,SSE,167,0.0,0.0,95,0.00,RA,,0.00,WeatherDisplay:10.37,2013-10-25 04:01:00,
2013-10-25 00:02:00,39.0,37.7,30.02,SSE,166,0.0,0.0,95,0.00,RA,,0.00,WeatherDisplay:10.37,2013-10-25 04:02:00,
2013-10-25 00:07:00,38.9,37.6,30.02,SSW,200,0.8,1.2,95,0.00,RA,,0.00,WeatherDisplay:10.37,2013-10-25 04:07:00,
2013-10-25 00:12:00,38.9,37.6,30.02,SSW,212,0.4,1.2,95,0.00,OVC,,0.00,WeatherDisplay:10.37,2013-10-25 04:12:00,
2013-10-25 00:17:00,38.7,37.4,30.02,South,190,0.5,1.2,95,0.00,OVC,,0.00,WeatherDisplay:10.37,2013-10-25 04:17:00,
2013-10-25 00:22:00,38.4,37.1,30.02,SSW,209,0.0,1.0,95,0.00,OVC,,0.00,WeatherDisplay:10.37,2013-10-25 04:22:00,
2013-10-25 00:27:00,38.2,36.9,30.02,SSW,200,0.0,0.0,95,0.00,OVC,,0.00,WeatherDisplay:10.37,2013-10-25 04:27:00,
2013-10-25 00:32:00,38.0,36.4,30.02,SE,141,0.3,1.2,94,0.00,OVC,,0.00,WeatherDisplay:10.37,2013-10-25 04:32:00,
2013-10-25 00:38:00,37.7,36.4,30.02,SSE,153,0.2,1.2,95,0.00,OVC,,0.00,WeatherDisplay:10.37,2013-10-25 04:38:00,
2013-10-25 00:43:00,37.5,36.2,30.02,South,188,0.0,1.2,95,0.00,OVC,,0.00,WeatherDisplay:10.37,2013-10-25 04:43:00,
2013-10-25 00:48:00,37.3,36.0,30.02,South,188,0.0,2.3,95,0.00,OVC,,0.00,WeatherDisplay:10.37,2013-10-25 04:48:00,
2013-10-25 00:53:00,37.1,35.8,30.03,SSE,155,0.6,1.2,95,0.00,OVC,,0.00,WeatherDisplay:10.37,2013-10-25 04:53:00,
2013-10-25 00:58:00,36.9,35.6,30.03,SSE,166,0.0,0.0,95,0.00,OVC,,0.00,WeatherDisplay:10.37,2013-10-25 04:58:00,
2013-10-25 01:03:00,36.7,35.4,30.03,South,170,0.1,0.0,95,0.00,SCT,,0.00,WeatherDisplay:10.37,2013-10-25 05:03:00,
2013-10-25 01:08:00,36.5,35.2,30.03,South,170,0.0,0.0,95,0.00,SCT,,0.00,WeatherDisplay:10.37,2013-10-25 05:08:00,
2013-10-25 01:13:00,36.4,35.1,30.03,SSW,195,0.1,1.2,95,0.00,SCT,,0.00,WeatherDisplay:10.37,2013-10-25 05:13:00,
2013-10-25 01:18:00,36.4,35.1,30.03,SSW,204,0.3,1.2,95,0.00,SCT,,0.00,WeatherDisplay:10.37,2013-10-25 05:18:00,
2013-10-25 01:23:00,36.3,35.0,30.04,SSW,204,0.0,0.0,95,0.00,SCT,,0.00,WeatherDisplay:10.37,2013-10-25 05:23:00,
2013-10-25 01:28:00,36.5,35.2,30.04,NE,41,0.9,1.2,95,0.00,SCT,,0.00,WeatherDisplay:10.37,2013-10-25 05:28:00,
2013-10-25 01:33:00,36.7,35.4,30.04,NNE,29,0.1,1.2,95,0.00,SCT,,0.00,WeatherDisplay:10.37,2013-10-25 05:33:00,
2013-10-25 01:38:00,36.8,35.5,30.04,NNE,29,0.1,0.0,95,0.00,SCT,,0.00,WeatherDisplay:10.37,2013-10-25 05:38:00,
2013-10-25 01:43:00,36.9,35.6,30.04,NNE,30,0.0,0.0,95,0.00,SCT,,0.00,WeatherDisplay:10.37,2013-10-25 05:43:00,
2013-10-25 01:48:00,37.0,36.0,30.04,NNE,29,0.0,0.0,96,0.00,SCT,,0.00,WeatherDisplay:10.37,2013-10-25 05:48:00,
2013-10-25 01:53:00,37.1,36.1,30.04,NNE,30,0.0,0.0,96,0.00,SCT,,0.00,WeatherDisplay:10.37,2013-10-25 05:53:00,
2013-10-25 01:58:00,37.2,36.2,30.05,NNE,30,0.0,0.0,96,0.00,SCT,,0.00,WeatherDisplay:10.37,2013-10-25 05:58:00,
2013-10-25 02:03:00,37.3,36.3,30.05,NNE,32,0.7,1.2,96,0.00,SCT,,0.00,WeatherDisplay:10.37,2013-10-25 06:03:00,
2013-10-25 02:08:00,37.3,36.3,30.05,SE,133,0.0,0.0,96,0.00,SCT,,0.00,WeatherDisplay:10.37,2013-10-25 06:08:00,
2013-10-25 02:13:00,37.4,36.4,30.05,SE,133,0.0,0.0,96,0.00,SCT,,0.00,WeatherDisplay:10.37,2013-10-25 06:13:00,
2013-10-25 02:18:00,37.4,36.4,30.05,SSE,155,0.2,0.0,96,0.00,SCT,,0.00,WeatherDisplay:10.37,2013-10-25 06:18:00,
2013-10-25 02:23:00,37.3,36.3,30.05,SSE,165,1.0,2.3,96,0.00,SCT,,0.00,WeatherDisplay:10.37,2013-10-25 06:23:00,
2013-10-25 02:28:00,37.2,36.2,30.05,South,189,0.4,2.3,96,0.00,SCT,,0.00,WeatherDisplay:10.37,2013-10-25 06:28:00,
2013-10-25 02:33:00,37.1,35.8,30.05,SSW,207,0.0,1.2,95,0.01,RA,,0.01,WeatherDisplay:10.37,2013-10-25 06:33:00,
2013-10-25 02:38:00,37.0,36.0,30.05,South,188,0.6,1.2,96,0.01,RA,,0.01,WeatherDisplay:10.37,2013-10-25 06:38:00,
2013-10-25 02:43:00,37.0,36.0,30.05,South,188,0.0,0.0,96,0.01,SCT,,0.01,WeatherDisplay:10.37,2013-10-25 06:43:00,
2013-10-25 02:48:00,36.9,35.9,30.06,South,189,0.0,0.0,96,0.01,SCT,,0.01,WeatherDisplay:10.37,2013-10-25 06:48:00,
2013-10-25 02:53:00,36.9,35.9,30.06,SSW,211,0.0,0.0,96,0.01,SCT,,0.01,WeatherDisplay:10.37,2013-10-25 06:53:00,
2013-10-25 02:58:00,36.9,35.9,30.06,SSW,210,0.4,1.2,96,0.01,SCT,,0.01,WeatherDisplay:10.37,2013-10-25 06:58:00,
2013-10-25 03:03:00,36.8,35.8,30.06,SW,217,0.3,1.2,96,0.01,SCT,,0.01,WeatherDisplay:10.37,2013-10-25 07:03:00,
2013-10-25 03:08:00,36.6,35.3,30.06,SW,214,0.0,0.0,95,0.01,SCT,,0.01,WeatherDisplay:10.37,2013-10-25 07:08:00,
2013-10-25 03:13:00,36.4,35.1,30.06,South,190,0.1,1.2,95,0.01,SCT,,0.01,WeatherDisplay:10.37,2013-10-25 07:13:00,
2013-10-25 03:18:00,36.2,34.9,30.06,SSW,194,0.0,0.0,95,0.01,SCT,,0.01,WeatherDisplay:10.37,2013-10-25 07:18:00,
2013-10-25 03:23:00,36.0,34.7,30.07,SSW,195,0.0,0.0,95,0.01,SCT,,0.01,WeatherDisplay:10.37,2013-10-25 07:23:00,
2013-10-25 03:28:00,35.8,34.5,30.06,SSW,194,0.0,0.0,95,0.01,SCT,,0.01,WeatherDisplay:10.37,2013-10-25 07:28:00,
2013-10-25 03:33:00,35.7,34.7,30.07,SSW,194,0.0,0.0,96,0.00,SCT,,0.01,WeatherDisplay:10.37,2013-10-25 07:33:00,
2013-10-25 03:38:00,35.5,34.5,30.06,SSW,194,0.0,0.0,96,0.00,SCT,,0.01,WeatherDisplay:10.37,2013-10-25 07:38:00,
2013-10-25 03:43:00,35.4,34.4,30.07,South,170,0.0,0.0,96,0.00,SCT,,0.01,WeatherDisplay:10.37,2013-10-25 07:43:00,
2013-10-25 03:48:00,35.2,34.2,30.07,South,170,0.0,0.0,96,0.00,SCT,,0.01,WeatherDisplay:10.37,2013-10-25 07:48:00,
2013-10-25 03:53:00,35.0,34.0,30.07,South,170,0.0,0.0,96,0.00,SCT,,0.01,WeatherDisplay:10.37,2013-10-25 07:53:00,
2013-10-25 03:58:00,34.9,33.9,30.07,South,170,0.0,0.0,96,0.00,SCT,,0.01,WeatherDisplay:10.37,2013-10-25 07:58:00,
2013-10-25 04:03:00,34.8,33.8,30.07,SSE,162,0.0,0.0,96,0.00,BKN,,0.01,WeatherDisplay:10.37,2013-10-25 08:03:00,
2013-10-25 04:08:00,34.8,33.8,30.07,South,169,0.2,1.2,96,0.00,BKN,,0.01,WeatherDisplay:10.37,2013-10-25 08:08:00,
2013-10-25 04:13:00,34.8,33.8,30.07,South,169,0.0,0.0,96,0.00,BKN,,0.01,WeatherDisplay:10.37,2013-10-25 08:13:00,
2013-10-25 04:18:00,34.8,33.8,30.07,South,169,0.0,0.0,96,0.00,BKN,,0.01,WeatherDisplay:10.37,2013-10-25 08:18:00,
2013-10-25 04:23:00,34.7,33.7,30.07,SSW,210,0.7,1.2,96,0.00,BKN,,0.01,WeatherDisplay:10.37,2013-10-25 08:23:00,
2013-10-25 04:28:00,34.5,33.5,30.08,SSW,211,0.3,1.2,96,0.00,BKN,,0.01,WeatherDisplay:10.37,2013-10-25 08:28:00,
2013-10-25 04:33:00,34.4,33.4,30.07,SSW,203,0.8,1.2,96,0.00,BKN,,0.01,WeatherDisplay:10.37,2013-10-25 08:33:00,
2013-10-25 04:38:00,34.3,33.3,30.08,SW,215,0.3,1.2,96,0.00,BKN,,0.01,WeatherDisplay:10.37,2013-10-25 08:38:00,
2013-10-25 04:43:00,34.2,33.2,30.08,SW,221,1.3,2.3,96,0.00,BKN,,0.01,WeatherDisplay:10.37,2013-10-25 08:43:00,
2013-10-25 04:48:00,34.2,33.2,30.08,SSW,204,0.8,2.3,96,0.00,BKN,,0.01,WeatherDisplay:10.37,2013-10-25 08:48:00,
2013-10-25 04:53:00,34.1,33.1,30.08,SSW,207,1.0,2.3,96,0.00,BKN,,0.01,WeatherDisplay:10.37,2013-10-25 08:53:00,
2013-10-25 04:58:00,34.0,33.0,30.08,SW,214,0.1,1.2,96,0.00,BKN,,0.01,WeatherDisplay:10.37,2013-10-25 08:58:00,
2013-10-25 05:03:00,34.0,33.0,30.09,SSW,212,0.0,0.0,96,0.00,BKN,,0.01,WeatherDisplay:10.37,2013-10-25 09:03:00,
2013-10-25 05:08:00,33.9,32.9,30.09,SSW,202,0.6,1.2,96,0.00,BKN,,0.01,WeatherDisplay:10.37,2013-10-25 09:08:00,
2013-10-25 05:13:00,33.8,32.8,30.09,SSW,205,0.0,0.0,96,0.00,BKN,,0.01,WeatherDisplay:10.37,2013-10-25 09:13:00,
2013-10-25 05:18:00,33.7,32.7,30.09,SSW,205,0.0,0.0,96,0.00,BKN,,0.01,WeatherDisplay:10.37,2013-10-25 09:18:00,
2013-10-25 05:23:00,33.7,32.7,30.09,SSW,206,0.2,1.0,96,0.00,BKN,,0.01,WeatherDisplay:10.37,2013-10-25 09:23:00,
2013-10-25 05:28:00,33.7,32.7,30.09,SW,217,0.0,0.0,96,0.00,BKN,,0.01,WeatherDisplay:10.37,2013-10-25 09:28:00,
2013-10-25 05:33:00,33.7,32.7,30.10,SW,217,0.0,1.2,96,0.00,BKN,,0.01,WeatherDisplay:10.37,2013-10-25 09:33:00,
2013-10-25 05:38:00,33.6,32.6,30.10,SW,231,0.0,0.0,96,0.00,BKN,,0.01,WeatherDisplay:10.37,2013-10-25 09:38:00,
2013-10-25 05:43:00,33.7,32.9,30.10,SW,231,1.0,1.2,97,0.00,BKN,,0.01,WeatherDisplay:10.37,2013-10-25 09:43:00,
2013-10-25 05:48:00,33.8,33.0,30.10,SW,235,0.5,1.2,97,0.00,BKN,,0.01,WeatherDisplay:10.37,2013-10-25 09:48:00,
2013-10-25 05:54:00,34.0,33.2,30.10,WSW,239,1.7,2.3,97,0.00,BKN,,0.01,WeatherDisplay:10.37,2013-10-25 09:54:00,
2013-10-25 05:59:00,34.1,33.3,30.10,SW,229,1.7,2.3,97,0.00,BKN,,0.01,WeatherDisplay:10.37,2013-10-25 09:59:00,
2013-10-25 06:04:00,34.3,33.5,30.10,SW,227,1.3,2.3,97,0.00,BKN,,0.01,WeatherDisplay:10.37,2013-10-25 10:04:00,
2013-10-25 06:09:00,34.5,33.7,30.11,SW,233,1.5,2.3,97,0.00,BKN,,0.01,WeatherDisplay:10.37,2013-10-25 10:09:00,
2013-10-25 06:14:00,34.5,33.7,30.11,SW,231,2.6,3.5,97,0.00,BKN,,0.01,WeatherDisplay:10.37,2013-10-25 10:14:00,
2013-10-25 06:19:00,34.5,33.7,30.11,SW,225,1.4,2.3,97,0.00,BKN,,0.01,WeatherDisplay:10.37,2013-10-25 10:19:00,
2013-10-25 06:24:00,34.4,33.6,30.11,SW,221,0.6,2.3,97,0.00,BKN,,0.01,WeatherDisplay:10.37,2013-10-25 10:24:00,
2013-10-25 06:29:00,34.2,33.4,30.11,SSW,211,0.2,1.0,97,0.00,BKN,,0.01,WeatherDisplay:10.37,2013-10-25 10:29:00,
2013-10-25 06:34:00,34.1,33.1,30.11,SSW,203,0.1,1.2,96,0.00,BKN,,0.01,WeatherDisplay:10.37,2013-10-25 10:34:00,
2013-10-25 06:39:00,34.0,33.0,30.11,SSW,203,0.0,0.0,96,0.00,BKN,,0.01,WeatherDisplay:10.37,2013-10-25 10:39:00,
2013-10-25 06:44:00,33.9,32.9,30.12,SSW,205,0.0,0.0,96,0.00,BKN,,0.01,WeatherDisplay:10.37,2013-10-25 10:44:00,
2013-10-25 06:49:00,33.8,32.8,30.12,SSW,204,0.0,0.0,96,0.00,BKN,,0.01,WeatherDisplay:10.37,2013-10-25 10:49:00,
2013-10-25 06:54:00,33.7,32.7,30.12,SSW,211,0.0,1.2,96,0.00,BKN,,0.01,WeatherDisplay:10.37,2013-10-25 10:54:00,
2013-10-25 06:59:00,33.6,32.8,30.12,SSW,212,0.0,0.0,97,0.00,BKN,,0.01,WeatherDisplay:10.37,2013-10-25 10:59:00,
2013-10-25 07:04:00,33.6,32.8,30.12,SSW,211,0.2,1.0,97,0.00,BKN,,0.01,WeatherDisplay:10.37,2013-10-25 11:04:00,
2013-10-25 07:09:00,33.6,32.8,30.13,SSW,211,0.1,0.0,97,0.00,BKN,,0.01,WeatherDisplay:10.37,2013-10-25 11:09:00,
2013-10-25 07:14:00,33.6,32.8,30.13,SSW,203,0.0,1.2,97,0.00,BKN,,0.01,WeatherDisplay:10.37,2013-10-25 11:14:00,
2013-10-25 07:19:00,33.6,32.8,30.13,SSW,203,0.0,0.0,97,0.00,BKN,,0.01,WeatherDisplay:10.37,2013-10-25 11:19:00,
2013-10-25 07:24:00,33.5,32.7,30.13,SSW,207,0.0,1.2,97,0.00,BKN,,0.01,WeatherDisplay:10.37,2013-10-25 11:24:00,
2013-10-25 07:29:00,33.5,32.7,30.13,SW,217,0.5,2.3,97,0.00,BKN,,0.01,WeatherDisplay:10.37,2013-10-25 11:29:00,
2013-10-25 07:34:00,33.5,32.7,30.13,SW,219,0.2,1.2,97,0.00,BKN,,0.01,WeatherDisplay:10.37,2013-10-25 11:34:00,
2013-10-25 07:39:00,33.6,32.8,30.13,SW,221,0.8,1.2,97,0.00,BKN,,0.01,WeatherDisplay:10.37,2013-10-25 11:39:00,
2013-10-25 07:44:00,33.8,33.0,30.13,SSW,204,0.5,1.2,97,0.00,BKN,,0.01,WeatherDisplay:10.37,2013-10-25 11:44:00,
2013-10-25 07:49:00,33.8,33.0,30.14,SW,215,0.3,1.2,97,0.00,BKN,,0.01,WeatherDisplay:10.37,2013-10-25 11:49:00,
2013-10-25 07:54:00,33.9,33.1,30.13,SSW,211,0.4,1.2,97,0.00,BKN,,0.01,WeatherDisplay:10.37,2013-10-25 11:54:00,
2013-10-25 07:59:00,33.9,33.1,30.13,SSW,208,0.8,2.3,97,0.00,BKN,,0.01,WeatherDisplay:10.37,2013-10-25 11:59:00,
2013-10-25 08:04:00,34.1,33.3,30.14,SW,224,1.0,2.3,97,0.00,BKN,,0.01,WeatherDisplay:10.37,2013-10-25 12:04:00,
2013-10-25 08:09:00,34.2,33.4,30.14,SSW,212,0.7,2.3,97,0.00,BKN,,0.01,WeatherDisplay:10.37,2013-10-25 12:09:00,
2013-10-25 08:14:00,34.4,33.6,30.14,South,190,1.2,3.5,97,0.00,BKN,,0.01,WeatherDisplay:10.37,2013-10-25 12:14:00,
2013-10-25 08:19:00,34.4,33.6,30.14,SSW,205,0.5,3.5,97,0.00,BKN,,0.01,WeatherDisplay:10.37,2013-10-25 12:19:00,
2013-10-25 08:24:00,34.5,33.7,30.15,SW,217,1.2,2.3,97,0.00,BKN,,0.01,WeatherDisplay:10.37,2013-10-25 12:24:00,
2013-10-25 08:29:00,34.6,33.8,30.15,SW,214,1.2,2.3,97,0.00,BKN,,0.01,WeatherDisplay:10.37,2013-10-25 12:29:00,
2013-10-25 08:34:00,34.8,34.0,30.15,SW,219,1.0,2.3,97,0.00,BKN,,0.01,WeatherDisplay:10.37,2013-10-25 12:34:00,
2013-10-25 08:39:00,34.9,34.1,30.15,SW,222,1.0,3.0,97,0.00,BKN,,0.01,WeatherDisplay:10.37,2013-10-25 12:39:00,
2013-10-25 08:44:00,35.2,34.4,30.15,SW,232,1.0,3.0,97,0.00,BKN,,0.01,WeatherDisplay:10.37,2013-10-25 12:44:00,
2013-10-25 08:49:00,35.5,34.7,30.16,SW,233,0.0,2.0,97,0.00,BKN,,0.01,WeatherDisplay:10.37,2013-10-25 12:49:00,
2013-10-25 08:54:00,35.9,35.1,30.16,SW,231,2.2,3.5,97,0.00,BKN,,0.01,WeatherDisplay:10.37,2013-10-25 12:54:00,
2013-10-25 08:59:00,36.3,35.5,30.16,SW,221,4.2,5.8,97,0.00,BKN,,0.01,WeatherDisplay:10.37,2013-10-25 12:59:00,
2013-10-25 09:04:00,36.7,35.9,30.16,SW,228,3.2,5.0,97,0.00,BKN,,0.01,WeatherDisplay:10.37,2013-10-25 13:04:00,
2013-10-25 09:09:00,37.1,36.3,30.16,SW,236,3.3,4.6,97,0.00,BKN,,0.01,WeatherDisplay:10.37,2013-10-25 13:09:00,
2013-10-25 09:14:00,37.5,36.7,30.17,SW,225,2.8,4.6,97,0.00,BKN,,0.01,WeatherDisplay:10.37,2013-10-25 13:14:00,
2013-10-25 09:19:00,37.9,37.1,30.17,SSW,207,3.4,5.8,97,0.00,BKN,,0.01,WeatherDisplay:10.37,2013-10-25 13:19:00,
2013-10-25 09:24:00,38.2,37.4,30.17,SW,225,3.1,4.6,97,0.00,BKN,,0.01,WeatherDisplay:10.37,2013-10-25 13:24:00,
2013-10-25 09:29:00,38.5,37.7,30.17,West,262,5.3,6.9,97,0.00,BKN,,0.01,WeatherDisplay:10.37,2013-10-25 13:29:00,
2013-10-25 09:34:00,39.0,38.2,30.17,WSW,249,5.6,8.1,97,0.00,BKN,,0.01,WeatherDisplay:10.37,2013-10-25 13:34:00,
2013-10-25 09:39:00,39.4,38.6,30.17,SW,229,6.2,8.1,97,0.00,BKN,,0.01,WeatherDisplay:10.37,2013-10-25 13:39:00,
2013-10-25 09:44:00,39.6,38.8,30.17,West,259,7.9,10.0,97,0.00,BKN,,0.01,WeatherDisplay:10.37,2013-10-25 13:44:00,
2013-10-25 09:49:00,39.9,39.1,30.17,SSW,205,5.9,8.1,97,0.00,BKN,,0.01,WeatherDisplay:10.37,2013-10-25 13:49:00,
2013-10-25 09:54:00,40.2,39.4,30.17,WNW,288,6.2,8.1,97,0.00,BKN,,0.01,WeatherDisplay:10.37,2013-10-25 13:54:00,
2013-10-25 10:00:00,40.7,39.9,30.17,SW,217,4.7,8.1,97,0.00,BKN,,0.01,WeatherDisplay:10.37,2013-10-25 14:00:00,
2013-10-25 10:05:00,41.1,40.0,30.17,WSW,242,5.7,9.2,96,0.00,SCT,,0.01,WeatherDisplay:10.37,2013-10-25 14:05:00,
2013-10-25 10:10:00,41.3,40.0,30.17,SW,228,5.5,8.1,95,0.00,SCT,,0.01,WeatherDisplay:10.37,2013-10-25 14:10:00,
2013-10-25 10:15:00,41.6,40.0,30.17,WSW,256,4.1,6.0,94,0.00,SCT,,0.01,WeatherDisplay:10.37,2013-10-25 14:15:00,
2013-10-25 10:20:00,41.9,40.0,30.17,WSW,239,3.5,6.9,93,0.00,SCT,,0.01,WeatherDisplay:10.37,2013-10-25 14:20:00,
2013-10-25 10:25:00,42.2,40.0,30.17,West,269,4.1,9.2,92,0.00,SCT,,0.01,WeatherDisplay:10.37,2013-10-25 14:25:00,
2013-10-25 10:30:00,42.3,39.9,30.17,WSW,255,4.6,6.9,91,0.00,SCT,,0.01,WeatherDisplay:10.37,2013-10-25 14:30:00,
2013-10-25 10:35:00,42.5,40.1,30.17,SW,233,6.1,6.9,91,0.00,SCT,,0.01,WeatherDisplay:10.37,2013-10-25 14:35:00,
2013-10-25 10:40:00,42.9,40.2,30.17,West,263,5.5,8.1,90,0.00,SCT,,0.01,WeatherDisplay:10.37,2013-10-25 14:40:00,
2013-10-25 10:45:00,43.1,40.4,30.18,WNW,299,4.2,8.1,90,0.00,SCT,,0.01,WeatherDisplay:10.37,2013-10-25 14:45:00,
2013-10-25 10:50:00,42.8,39.8,30.18,West,277,2.8,4.6,89,0.00,SCT,,0.01,WeatherDisplay:10.37,2013-10-25 14:50:00,
2013-10-25 10:55:00,42.4,39.4,30.18,WSW,250,5.6,13.8,89,0.00,SCT,,0.01,WeatherDisplay:10.37,2013-10-25 14:55:00,
2013-10-25 11:00:00,42.7,39.7,30.18,WSW,239,6.9,10.4,89,0.00,SCT,,0.01,WeatherDisplay:10.37,2013-10-25 15:00:00,
2013-10-25 11:05:00,42.9,39.3,30.18,WSW,252,4.6,10.4,87,0.00,SCT,,0.01,WeatherDisplay:10.37,2013-10-25 15:05:00,
2013-10-25 11:10:00,43.2,39.6,30.18,WSW,242,5.2,10.4,87,0.00,SCT,,0.01,WeatherDisplay:10.37,2013-10-25 15:10:00,
2013-10-25 11:15:00,43.5,39.3,30.18,West,280,5.4,9.2,85,0.00,SCT,,0.01,WeatherDisplay:10.37,2013-10-25 15:15:00,
2013-10-25 11:20:00,44.0,39.5,30.18,West,270,6.7,10.4,84,0.00,SCT,,0.01,WeatherDisplay:10.37,2013-10-25 15:20:00,
2013-10-25 11:25:00,44.2,40.0,30.18,WSW,246,8.1,11.0,85,0.00,SCT,,0.01,WeatherDisplay:10.37,2013-10-25 15:25:00,
2013-10-25 11:30:00,43.8,38.7,30.18,WSW,252,3.6,8.1,82,0.00,SCT,,0.01,WeatherDisplay:10.37,2013-10-25 15:30:00,
2013-10-25 11:35:00,43.7,39.2,30.18,WSW,257,3.5,6.9,84,0.00,SCT,,0.01,WeatherDisplay:10.37,2013-10-25 15:35:00,
2013-10-25 11:40:00,43.9,39.1,30.18,SW,220,5.0,9.2,83,0.00,SCT,,0.01,WeatherDisplay:10.37,2013-10-25 15:40:00,
2013-10-25 11:45:00,44.1,39.0,30.18,NW,314,7.0,13.8,82,0.00,SCT,,0.01,WeatherDisplay:10.37,2013-10-25 15:45:00,
2013-10-25 11:50:00,44.2,39.1,30.18,SW,236,8.4,11.5,82,0.00,SCT,,0.01,WeatherDisplay:10.37,2013-10-25 15:50:00,
2013-10-25 11:55:00,44.5,39.3,30.18,WSW,252,9.6,11.5,82,0.00,SCT,,0.01,WeatherDisplay:10.37,2013-10-25 15:55:00,
2013-10-25 12:00:00,44.8,39.3,30.18,SW,231,8.3,12.7,81,0.00,SCT,,0.01,WeatherDisplay:10.37,2013-10-25 16:00:00,
2013-10-25 12:05:00,45.3,40.1,30.18,SW,236,7.6,12.7,82,0.00,SCT,,0.01,WeatherDisplay:10.37,2013-10-25 16:05:00,
2013-10-25 12:10:00,45.6,39.8,30.18,NW,316,5.8,8.1,80,0.00,SCT,,0.01,WeatherDisplay:10.37,2013-10-25 16:10:00,
2013-10-25 12:15:00,46.0,39.9,30.18,West,280,7.6,11.5,79,0.00,SCT,,0.01,WeatherDisplay:10.37,2013-10-25 16:15:00,
2013-10-25 12:20:00,46.1,39.9,30.17,SW,219,8.8,12.7,79,0.00,SCT,,0.01,WeatherDisplay:10.37,2013-10-25 16:20:00,
2013-10-25 12:25:00,46.2,40.4,30.17,WSW,240,7.2,15.0,80,0.00,SCT,,0.01,WeatherDisplay:10.37,2013-10-25 16:25:00,
2013-10-25 12:30:00,46.4,38.9,30.17,SW,214,6.6,11.5,75,0.00,SCT,,0.01,WeatherDisplay:10.37,2013-10-25 16:30:00,
2013-10-25 12:35:00,46.4,38.9,30.17,SW,228,10.2,13.8,75,0.00,SCT,,0.01,WeatherDisplay:10.37,2013-10-25 16:35:00,
2013-10-25 12:40:00,46.8,40.3,30.17,WSW,240,5.7,10.4,78,0.00,SCT,,0.01,WeatherDisplay:10.37,2013-10-25 16:40:00,
2013-10-25 12:45:00,46.5,39.0,30.17,WSW,245,7.8,10.4,75,0.00,SCT,,0.01,WeatherDisplay:10.37,2013-10-25 16:45:00,
2013-10-25 12:50:00,46.0,38.9,30.17,WNW,287,6.6,8.1,76,0.00,BKN,,0.01,WeatherDisplay:10.37,2013-10-25 16:50:00,
2013-10-25 12:55:00,45.7,38.9,30.17,WSW,252,4.5,10.4,77,0.00,BKN,,0.01,WeatherDisplay:10.37,2013-10-25 16:55:00,
2013-10-25 13:00:00,45.5,38.7,30.17,West,260,2.6,4.0,77,0.00,BKN,,0.01,WeatherDisplay:10.37,2013-10-25 17:00:00,
2013-10-25 13:05:00,45.3,38.5,30.17,SW,229,5.7,8.1,77,0.00,BKN,,0.01,WeatherDisplay:10.37,2013-10-25 17:05:00,
2013-10-25 13:10:00,45.6,39.1,30.17,West,263,5.1,9.2,78,0.00,BKN,,0.01,WeatherDisplay:10.37,2013-10-25 17:10:00,
2013-10-25 13:15:00,46.4,38.9,30.16,West,267,11.5,13.8,75,0.00,BKN,,0.01,WeatherDisplay:10.37,2013-10-25 17:15:00,
2013-10-25 13:20:00,47.2,39.3,30.16,SW,236,10.9,11.5,74,0.00,BKN,,0.01,WeatherDisplay:10.37,2013-10-25 17:20:00,
2013-10-25 13:25:00,47.4,38.8,30.16,WSW,242,11.3,13.8,72,0.00,BKN,,0.01,WeatherDisplay:10.37,2013-10-25 17:25:00,
2013-10-25 13:30:00,47.6,38.7,30.16,SSW,207,12.1,18.4,71,0.00,BKN,,0.01,WeatherDisplay:10.37,2013-10-25 17:30:00,
2013-10-25 13:35:00,47.7,38.4,30.16,WSW,245,7.7,11.5,70,0.00,BKN,,0.01,WeatherDisplay:10.37,2013-10-25 17:35:00,
2013-10-25 13:40:00,47.1,37.8,30.16,WSW,249,9.2,11.5,70,0.00,BKN,,0.01,WeatherDisplay:10.37,2013-10-25 17:40:00,
2013-10-25 13:45:00,46.6,37.7,30.16,WNW,285,8.8,11.5,71,0.00,BKN,,0.01,WeatherDisplay:10.37,2013-10-25 17:45:00,
2013-10-25 13:50:00,46.6,38.1,30.16,SW,233,4.0,6.9,72,0.00,BKN,,0.01,WeatherDisplay:10.37,2013-10-25 17:50:00,
2013-10-25 13:55:00,46.9,38.3,30.16,NW,304,6.1,10.4,72,0.00,BKN,,0.01,WeatherDisplay:10.37,2013-10-25 17:55:00,
2013-10-25 14:00:00,46.7,37.8,30.15,West,264,3.4,4.6,71,0.00,BKN,,0.01,WeatherDisplay:10.37,2013-10-25 18:00:00,
2013-10-25 14:05:00,46.4,37.1,30.15,WSW,257,7.0,11.5,70,0.00,BKN,,0.01,WeatherDisplay:10.37,2013-10-25 18:05:00,
2013-10-25 14:10:00,46.2,37.0,30.15,West,259,6.0,11.0,70,0.00,BKN,,0.01,WeatherDisplay:10.37,2013-10-25 18:10:00,
2013-10-25 14:15:00,46.8,37.2,30.15,WNW,288,7.0,10.0,69,0.00,BKN,,0.01,WeatherDisplay:10.37,2013-10-25 18:15:00,
2013-10-25 14:20:00,47.2,37.5,30.15,West,264,6.6,9.2,69,0.00,BKN,,0.01,WeatherDisplay:10.37,2013-10-25 18:20:00,
2013-10-25 14:25:00,47.4,37.4,30.15,NW,308,4.7,6.9,68,0.00,BKN,,0.01,WeatherDisplay:10.37,2013-10-25 18:25:00,
2013-10-25 14:30:00,47.4,37.0,30.15,SW,224,7.7,12.7,67,0.00,BKN,,0.01,WeatherDisplay:10.37,2013-10-25 18:30:00,
2013-10-25 14:35:00,47.5,37.5,30.15,West,278,8.0,11.5,68,0.00,BKN,,0.01,WeatherDisplay:10.37,2013-10-25 18:35:00,
2013-10-25 14:40:00,47.6,37.2,30.15,WSW,249,9.3,11.5,67,0.00,BKN,,0.01,WeatherDisplay:10.37,2013-10-25 18:40:00,
2013-10-25 14:45:00,47.5,36.3,30.15,WNW,284,11.0,17.3,65,0.00,BKN,,0.01,WeatherDisplay:10.37,2013-10-25 18:45:00,
2013-10-25 14:50:00,47.4,36.6,30.15,West,267,4.7,6.9,66,0.00,BKN,,0.01,WeatherDisplay:10.37,2013-10-25 18:50:00,
2013-10-25 14:55:00,47.4,36.6,30.15,WSW,250,6.8,12.7,66,0.00,BKN,,0.01,WeatherDisplay:10.37,2013-10-25 18:55:00,
2013-10-25 15:00:00,47.6,36.4,30.15,WNW,297,9.1,12.7,65,0.00,-RA,,0.01,WeatherDisplay:10.37,2013-10-25 19:00:00,
2013-10-25 15:05:00,47.9,36.7,30.15,West,273,10.0,13.8,65,0.00,-RA,,0.01,WeatherDisplay:10.37,2013-10-25 19:05:00,
2013-10-25 15:10:00,47.7,36.5,30.15,West,269,9.0,14.0,65,0.00,-RA,,0.01,WeatherDisplay:10.37,2013-10-25 19:10:00,
2013-10-25 15:15:00,47.5,36.3,30.15,NW,304,9.6,13.8,65,0.00,-RA,,0.01,WeatherDisplay:10.37,2013-10-25 19:15:00,
2013-10-25 15:20:00,47.6,36.8,30.15,West,280,8.1,11.5,66,0.00,-RA,,0.01,WeatherDisplay:10.37,2013-10-25 19:20:00,
2013-10-25 15:25:00,47.7,37.3,30.15,West,278,10.7,17.3,67,0.00,-RA,,0.01,WeatherDisplay:10.37,2013-10-25 19:25:00,
2013-10-25 15:30:00,47.6,37.2,30.15,WNW,283,6.8,13.0,67,0.00,-RA,,0.01,WeatherDisplay:10.37,2013-10-25 19:30:00,
2013-10-25 15:35:00,47.3,36.5,30.15,WNW,284,9.7,13.8,66,0.00,-RA,,0.01,WeatherDisplay:10.37,2013-10-25 19:35:00,
2013-10-25 15:40:00,47.0,36.2,30.15,WSW,242,6.5,11.5,66,0.00,-RA,,0.01,WeatherDisplay:10.37,2013-10-25 19:40:00,
2013-10-25 15:45:00,47.0,36.6,30.15,NW,325,6.3,11.5,67,0.00,-RA,,0.01,WeatherDisplay:10.37,2013-10-25 19:45:00,
2013-10-25 15:50:00,46.9,36.5,30.15,West,264,6.3,12.7,67,0.00,-RA,,0.01,WeatherDisplay:10.37,2013-10-25 19:50:00,
2013-10-25 15:55:00,47.0,36.6,30.15,WSW,250,9.3,15.0,67,0.00,-RA,,0.01,WeatherDisplay:10.37,2013-10-25 19:55:00,
2013-10-25 16:00:00,46.9,36.5,30.15,WSW,239,7.6,11.5,67,0.00,-RA,,0.01,WeatherDisplay:10.37,2013-10-25 20:00:00,
2013-10-25 16:05:00,47.1,36.7,30.15,WSW,252,7.4,11.5,67,0.00,-RA,,0.01,WeatherDisplay:10.37,2013-10-25 20:05:00,
2013-10-25 16:10:00,47.4,37.4,30.15,WNW,292,3.2,8.1,68,0.00,-RA,,0.01,WeatherDisplay:10.37,2013-10-25 20:10:00,
2013-10-25 16:15:00,47.3,36.5,30.15,WSW,257,3.9,5.8,66,0.00,-RA,,0.01,WeatherDisplay:10.37,2013-10-25 20:15:00,
2013-10-25 16:20:00,47.3,36.5,30.15,WSW,250,5.7,9.2,66,0.00,-RA,,0.01,WeatherDisplay:10.37,2013-10-25 20:20:00,
2013-10-25 16:25:00,47.3,36.5,30.15,WNW,295,6.4,8.1,66,0.00,-RA,,0.01,WeatherDisplay:10.37,2013-10-25 20:25:00,
2013-10-25 16:30:00,47.7,35.3,30.14,WNW,287,8.7,12.7,62,0.00,-RA,,0.01,WeatherDisplay:10.37,2013-10-25 20:30:00,
2013-10-25 16:35:00,38.4,35.7,30.15,SSE,153,0.0,2.0,90,0.00,CLR,,0.01,WeatherDisplay:10.37,2013-10-25 20:35:00,
2013-10-25 16:36:00,47.8,35.0,30.15,WSW,249,11.6,17.3,61,0.00,-RA,,0.01,WeatherDisplay:10.37,2013-10-25 20:36:00,
2013-10-25 16:40:00,38.6,35.6,30.15,South,190,0.0,1.0,89,0.00,CLR,,0.01,WeatherDisplay:10.37,2013-10-25 20:40:00,
2013-10-25 16:41:00,47.8,35.0,30.15,WNW,288,8.4,17.3,61,0.00,-RA,,0.01,WeatherDisplay:10.37,2013-10-25 20:41:00,
2013-10-25 16:45:00,38.8,35.8,30.15,SSW,202,0.0,1.0,89,0.00,CLR,,0.01,WeatherDisplay:10.37,2013-10-25 20:45:00,
2013-10-25 16:46:00,47.5,35.1,30.15,SW,231,4.6,10.4,62,0.00,-RA,,0.01,WeatherDisplay:10.37,2013-10-25 20:46:00,
2013-10-25 16:50:00,39.1,35.8,30.14,SW,224,0.0,2.0,88,0.00,CLR,,0.01,WeatherDisplay:10.37,2013-10-25 20:50:00,
2013-10-25 16:51:00,47.1,35.1,30.15,WNW,294,6.2,11.5,63,0.00,-RA,,0.01,WeatherDisplay:10.37,2013-10-25 20:51:00,
2013-10-25 16:55:00,39.3,35.8,30.15,WSW,248,1.0,2.0,87,0.00,CLR,,0.01,WeatherDisplay:10.37,2013-10-25 20:55:00,
2013-10-25 16:56:00,46.9,35.7,30.15,NW,314,6.5,13.8,65,0.00,-RA,,0.01,WeatherDisplay:10.37,2013-10-25 20:56:00,
2013-10-25 17:00:00,39.5,36.0,30.14,SW,225,0.0,1.0,87,0.00,CLR,,0.01,WeatherDisplay:10.37,2013-10-25 21:00:00,
2013-10-25 17:02:00,46.4,37.1,30.16,West,264,8.0,11.5,70,0.00,BKN,,0.01,WeatherDisplay:10.37,2013-10-25 21:02:00,
2013-10-25 17:05:00,39.5,36.0,30.14,SSW,202,0.0,1.0,87,0.00,CLR,,0.01,WeatherDisplay:10.37,2013-10-25 21:05:00,
2013-10-25 17:07:00,45.9,37.4,30.16,West,260,6.9,12.0,72,0.00,BKN,,0.01,WeatherDisplay:10.37,2013-10-25 21:07:00,
2013-10-25 17:10:00,39.5,35.7,30.13,SSW,202,0.0,1.0,86,0.00,CLR,,0.01,WeatherDisplay:10.37,2013-10-25 21:10:00,
2013-10-25 17:12:00,45.5,37.3,30.15,NNW,332,6.1,10.4,73,0.00,BKN,,0.01,WeatherDisplay:10.37,2013-10-25 21:12:00,
2013-10-25 17:15:00,39.5,35.7,30.13,SSW,202,0.0,1.0,86,0.00,CLR,,0.01,WeatherDisplay:10.37,2013-10-25 21:15:00,
2013-10-25 17:17:00,45.3,37.5,30.15,West,280,3.8,5.8,74,0.00,BKN,,0.01,WeatherDisplay:10.37,2013-10-25 21:17:00,
2013-10-25 17:20:00,39.6,35.5,30.13,South,183,1.0,2.0,85,0.00,CLR,,0.01,WeatherDisplay:10.37,2013-10-25 21:20:00,
2013-10-25 17:23:00,45.2,37.4,30.15,WNW,290,5.2,10.4,74,0.00,BKN,,0.01,WeatherDisplay:10.37,2013-10-25 21:23:00,
2013-10-25 17:25:00,39.7,35.6,30.13,South,169,1.0,3.0,85,0.00,CLR,,0.01,WeatherDisplay:10.37,2013-10-25 21:25:00,
2013-10-25 17:28:00,45.1,37.3,30.15,WSW,255,6.0,11.5,74,0.00,BKN,,0.01,WeatherDisplay:10.37,2013-10-25 21:28:00,
2013-10-25 17:30:00,39.9,35.5,30.13,South,180,0.0,2.0,84,0.00,CLR,,0.01,WeatherDisplay:10.37,2013-10-25 21:30:00,
2013-10-25 17:33:00,45.1,37.3,30.15,WNW,283,4.7,9.2,74,0.00,BKN,,0.01,WeatherDisplay:10.37,2013-10-25 21:33:00,
2013-10-25 17:35:00,39.8,35.4,30.13,South,169,1.0,2.0,84,0.00,CLR,,0.01,WeatherDisplay:10.37,2013-10-25 21:35:00,
2013-10-25 17:38:00,45.0,37.2,30.15,WSW,239,5.5,6.9,74,0.00,BKN,,0.01,WeatherDisplay:10.37,2013-10-25 21:38:00,
2013-10-25 17:40:00,39.6,35.5,30.13,SSE,156,2.0,3.0,85,0.00,CLR,,0.01,WeatherDisplay:10.37,2013-10-25 21:40:00,
2013-10-25 17:43:00,45.0,36.5,30.15,WNW,297,4.3,8.1,72,0.00,BKN,,0.01,WeatherDisplay:10.37,2013-10-25 21:43:00,
2013-10-25 17:45:00,39.6,35.5,30.12,SSE,161,2.0,3.0,85,0.00,CLR,,0.01,WeatherDisplay:10.37,2013-10-25 21:45:00,
2013-10-25 17:49:00,45.0,36.5,30.15,WSW,248,6.6,11.5,72,0.00,BKN,,0.01,WeatherDisplay:10.37,2013-10-25 21:49:00,
2013-10-25 17:50:00,39.7,35.3,30.13,SSE,163,1.0,3.0,84,0.00,CLR,,0.01,WeatherDisplay:10.37,2013-10-25 21:50:00,
2013-10-25 17:54:00,45.0,36.2,30.16,West,266,5.3,11.5,71,0.00,BKN,,0.01,WeatherDisplay:10.37,2013-10-25 21:54:00,
2013-10-25 17:55:00,39.8,35.7,30.13,SSE,168,2.0,5.0,85,0.00,CLR,,0.01,WeatherDisplay:10.37,2013-10-25 21:55:00,
2013-10-25 17:59:00,44.9,35.7,30.16,West,260,6.0,13.0,70,0.00,BKN,,0.01,WeatherDisplay:10.37,2013-10-25 21:59:00,
2013-10-25 18:00:00,40.0,35.9,30.12,SSE,166,3.0,6.0,85,0.00,CLR,,0.01,WeatherDisplay:10.37,2013-10-25 22:00:00,
2013-10-25 18:04:00,44.8,35.6,30.16,WNW,292,8.3,15.0,70,0.00,BKN,,0.01,WeatherDisplay:10.37,2013-10-25 22:04:00,
2013-10-25 18:05:00,40.2,35.8,30.12,SSE,163,2.0,5.0,84,0.00,CLR,,0.01,WeatherDisplay:10.37,2013-10-25 22:05:00,
2013-10-25 18:09:00,44.7,35.5,30.16,WNW,286,6.3,10.4,70,0.00,BKN,,0.01,WeatherDisplay:10.37,2013-10-25 22:09:00,
2013-10-25 18:10:00,40.4,35.9,30.12,South,170,2.0,5.0,84,0.00,CLR,,0.01,WeatherDisplay:10.37,2013-10-25 22:10:00,
2013-10-25 18:14:00,44.5,35.3,30.16,WSW,253,4.7,8.1,70,0.00,BKN,,0.01,WeatherDisplay:10.37,2013-10-25 22:14:00,
2013-10-25 18:15:00,40.6,36.1,30.12,South,181,3.0,7.0,84,0.00,CLR,,0.01,WeatherDisplay:10.37,2013-10-25 22:15:00,
2013-10-25 18:19:00,44.5,35.7,30.16,NNW,330,5.7,10.4,71,0.00,BKN,,0.01,WeatherDisplay:10.37,2013-10-25 22:19:00,
2013-10-25 18:20:00,40.8,36.3,30.12,South,184,3.0,7.0,84,0.00,CLR,,0.01,WeatherDisplay:10.37,2013-10-25 22:20:00,
2013-10-25 18:24:00,44.4,35.6,30.16,West,266,7.6,12.7,71,0.00,BKN,,0.01,WeatherDisplay:10.37,2013-10-25 22:24:00,
2013-10-25 18:25:00,40.9,36.4,30.12,South,181,3.0,6.0,84,0.00,CLR,,0.01,WeatherDisplay:10.37,2013-10-25 22:25:00,
2013-10-25 18:29:00,44.3,35.8,30.16,WSW,245,8.6,12.7,72,0.00,BKN,,0.01,WeatherDisplay:10.37,2013-10-25 22:29:00,
2013-10-25 18:30:00,41.0,36.2,30.11,South,182,2.0,6.0,83,0.00,CLR,,0.01,WeatherDisplay:10.37,2013-10-25 22:30:00,
2013-10-25 18:34:00,44.3,36.2,30.16,WSW,257,9.7,15.0,73,0.00,BKN,,0.01,WeatherDisplay:10.37,2013-10-25 22:34:00,
2013-10-25 18:35:00,41.1,36.3,30.11,South,189,3.0,8.0,83,0.00,CLR,,0.01,WeatherDisplay:10.37,2013-10-25 22:35:00,
2013-10-25 18:39:00,44.1,36.3,30.16,SW,231,6.9,9.2,74,0.00,BKN,,0.01,WeatherDisplay:10.37,2013-10-25 22:39:00,
2013-10-25 18:40:00,41.1,36.3,30.11,South,188,3.0,7.0,83,0.00,CLR,,0.01,WeatherDisplay:10.37,2013-10-25 22:40:00,
2013-10-25 18:44:00,43.9,36.1,30.16,SW,218,5.8,9.2,74,0.00,BKN,,0.01,WeatherDisplay:10.37,2013-10-25 22:44:00,
2013-10-25 18:45:00,41.2,36.4,30.11,South,177,3.0,6.0,83,0.00,CLR,,0.01,WeatherDisplay:10.37,2013-10-25 22:45:00,
2013-10-25 18:49:00,43.8,36.0,30.16,WSW,248,3.4,5.8,74,0.00,BKN,,0.01,WeatherDisplay:10.37,2013-10-25 22:49:00,
2013-10-25 18:50:00,41.2,36.4,30.11,South,170,3.0,7.0,83,0.00,CLR,,0.01,WeatherDisplay:10.37,2013-10-25 22:50:00,
2013-10-25 18:54:00,43.7,36.0,30.16,WSW,253,4.8,6.9,74,0.00,BKN,,0.01,WeatherDisplay:10.37,2013-10-25 22:54:00,
2013-10-25 18:55:00,41.3,36.5,30.11,South,172,3.0,8.0,83,0.00,CLR,,0.01,WeatherDisplay:10.37,2013-10-25 22:55:00,
2013-10-25 18:59:00,43.5,35.8,30.16,WSW,245,3.3,4.6,74,0.00,BKN,,0.01,WeatherDisplay:10.37,2013-10-25 22:59:00,
2013-10-25 19:00:00,41.3,36.5,30.10,South,170,2.0,7.0,83,0.00,CLR,,0.01,WeatherDisplay:10.37,2013-10-25 23:00:00,
2013-10-25 19:04:00,43.4,36.0,30.16,West,278,1.9,3.5,75,0.00,SCT,,0.01,WeatherDisplay:10.37,2013-10-25 23:04:00,
2013-10-25 19:05:00,41.3,36.5,30.10,South,170,3.0,10.0,83,0.00,CLR,,0.00,WeatherDisplay:10.37,2013-10-25 23:05:00,
2013-10-25 19:09:00,43.3,35.9,30.16,WNW,297,2.0,3.5,75,0.00,SCT,,0.01,WeatherDisplay:10.37,2013-10-25 23:09:00,
2013-10-25 19:10:00,41.3,36.8,30.10,South,177,5.0,9.0,84,0.00,CLR,,0.00,WeatherDisplay:10.37,2013-10-25 23:10:00,
2013-10-25 19:14:00,42.9,35.9,30.16,WNW,287,2.3,3.5,76,0.00,SCT,,0.01,WeatherDisplay:10.37,2013-10-25 23:14:00,
2013-10-25 19:15:00,41.3,36.8,30.10,South,187,3.0,9.0,84,0.00,CLR,,0.00,WeatherDisplay:10.37,2013-10-25 23:15:00,
2013-10-25 19:19:00,42.4,35.7,30.16,WNW,301,1.7,3.0,77,0.00,SCT,,0.01,WeatherDisplay:10.37,2013-10-25 23:19:00,
2013-10-25 19:20:00,41.3,37.1,30.10,South,187,5.0,8.0,85,0.00,CLR,,0.00,WeatherDisplay:10.37,2013-10-25 23:20:00,
2013-10-25 19:24:00,42.0,36.0,30.16,West,273,0.4,1.2,79,0.00,SCT,,0.01,WeatherDisplay:10.37,2013-10-25 23:24:00,
2013-10-25 19:25:00,41.2,37.0,30.09,South,178,5.0,8.0,85,0.00,CLR,,0.00,WeatherDisplay:10.37,2013-10-25 23:25:00,
2013-10-25 19:29:00,41.8,35.8,30.16,West,263,1.0,1.2,79,0.00,SCT,,0.01,WeatherDisplay:10.37,2013-10-25 23:29:00,
2013-10-25 19:30:00,41.2,37.3,30.09,South,180,5.0,7.0,86,0.00,CLR,,0.00,WeatherDisplay:10.37,2013-10-25 23:30:00,
2013-10-25 19:34:00,41.6,35.9,30.16,West,265,0.0,0.0,80,0.00,SCT,,0.01,WeatherDisplay:10.37,2013-10-25 23:34:00,
2013-10-25 19:35:00,41.1,37.2,30.09,South,184,3.0,9.0,86,0.00,CLR,,0.00,WeatherDisplay:10.37,2013-10-25 23:35:00,
2013-10-25 19:39:00,41.3,35.6,30.16,West,266,0.0,1.2,80,0.00,SCT,,0.01,WeatherDisplay:10.37,2013-10-25 23:39:00,
2013-10-25 19:40:00,41.1,37.2,30.09,South,189,3.0,7.0,86,0.00,CLR,,0.00,WeatherDisplay:10.37,2013-10-25 23:40:00,
2013-10-25 19:44:00,40.9,35.5,30.16,West,266,0.0,0.0,81,0.00,SCT,,0.01,WeatherDisplay:10.37,2013-10-25 23:44:00,
2013-10-25 19:45:00,41.0,36.8,30.09,South,190,5.0,9.0,85,0.00,CLR,,0.00,WeatherDisplay:10.37,2013-10-25 23:45:00,
2013-10-25 19:49:00,40.6,35.5,30.16,West,266,0.0,0.0,82,0.00,SCT,,0.01,WeatherDisplay:10.37,2013-10-25 23:49:00,
2013-10-25 19:50:00,40.9,36.7,30.09,South,186,6.0,10.0,85,0.00,CLR,,0.00,WeatherDisplay:10.37,2013-10-25 23:50:00,
2013-10-25 19:54:00,40.3,35.5,30.17,West,266,0.0,0.0,83,0.00,SCT,,0.01,WeatherDisplay:10.37,2013-10-25 23:54:00,
2013-10-25 19:55:00,40.8,36.6,30.09,South,188,3.0,8.0,85,0.00,CLR,,0.00,WeatherDisplay:10.37,2013-10-25 23:55:00,
2013-10-25 19:59:00,40.2,35.8,30.16,West,270,1.2,1.2,84,0.00,SCT,,0.01,WeatherDisplay:10.37,2013-10-25 23:59:00,
2013-10-25 20:00:00,40.7,36.5,30.08,South,191,5.0,14.0,85,0.00,CLR,,0.00,WeatherDisplay:10.37,2013-10-26 00:00:00,
2013-10-25 20:04:00,40.3,35.5,30.16,West,276,0.4,1.2,83,0.00,BKN,,0.01,WeatherDisplay:10.37,2013-10-26 00:04:00,
2013-10-25 20:05:00,40.6,36.4,30.08,South,185,3.0,6.0,85,0.00,CLR,,0.00,WeatherDisplay:10.37,2013-10-26 00:05:00,
2013-10-25 20:10:00,40.4,35.6,30.16,WNW,293,1.2,1.2,83,0.00,BKN,,0.01,WeatherDisplay:10.37,2013-10-26 00:10:00,
2013-10-25 20:15:00,40.4,35.6,30.15,WNW,293,0.1,1.2,83,0.00,BKN,,0.01,WeatherDisplay:10.37,2013-10-26 00:15:00,
2013-10-25 20:20:00,40.3,35.5,30.15,NW,315,0.5,2.3,83,0.00,BKN,,0.01,WeatherDisplay:10.37,2013-10-26 00:20:00,
2013-10-25 20:25:00,40.2,35.4,30.15,NW,315,0.0,0.0,83,0.00,BKN,,0.01,WeatherDisplay:10.37,2013-10-26 00:25:00,
2013-10-25 20:30:00,40.0,35.3,30.15,NW,315,0.0,0.0,83,0.00,BKN,,0.01,WeatherDisplay:10.37,2013-10-26 00:30:00,
2013-10-25 20:35:00,39.3,34.6,30.15,NW,315,0.0,0.0,83,0.00,BKN,,0.01,WeatherDisplay:10.37,2013-10-26 00:35:00,
2013-10-25 20:40:00,38.8,34.4,30.15,NW,315,0.0,0.0,84,0.00,BKN,,0.01,WeatherDisplay:10.37,2013-10-26 00:40:00,
2013-10-25 20:45:00,38.5,34.7,30.15,NW,315,0.0,0.0,86,0.00,BKN,,0.01,WeatherDisplay:10.37,2013-10-26 00:45:00,
2013-10-25 20:50:00,38.2,34.4,30.15,NW,315,0.0,0.0,86,0.00,BKN,,0.01,WeatherDisplay:10.37,2013-10-26 00:50:00,
2013-10-25 20:55:00,38.1,34.6,30.15,SE,129,0.3,1.2,87,0.00,BKN,,0.01,WeatherDisplay:10.37,2013-10-26 00:55:00,
2013-10-25 21:00:00,38.8,35.0,30.06,South,176,5.0,10.0,86,0.00,CLR,,0.00,WeatherDisplay:10.37,2013-10-26 01:00:00,
2013-10-25 21:05:00,38.7,34.9,30.06,South,170,5.0,9.0,86,0.00,CLR,,0.00,WeatherDisplay:10.37,2013-10-26 01:05:00,
2013-10-25 21:10:00,38.7,34.9,30.06,South,179,3.0,8.0,86,0.00,CLR,,0.00,WeatherDisplay:10.37,2013-10-26 01:10:00,
2013-10-25 21:15:00,38.7,35.2,30.06,South,187,5.0,9.0,87,0.00,CLR,,0.00,WeatherDisplay:10.37,2013-10-26 01:15:00,
2013-10-25 21:20:00,38.6,35.1,30.06,South,181,6.0,11.0,87,0.00,CLR,,0.00,WeatherDisplay:10.37,2013-10-26 01:20:00,
2013-10-25 21:25:00,38.5,35.0,30.05,South,191,2.0,9.0,87,0.00,CLR,,0.00,WeatherDisplay:10.37,2013-10-26 01:25:00,
2013-10-25 21:30:00,38.5,35.3,30.05,South,190,8.0,12.0,88,0.00,CLR,,0.00,WeatherDisplay:10.37,2013-10-26 01:30:00,
2013-10-25 21:35:00,38.4,35.2,30.05,South,187,5.0,12.0,88,0.00,CLR,,0.00,WeatherDisplay:10.37,2013-10-26 01:35:00,
2013-10-25 21:40:00,38.4,35.4,30.05,SSW,195,3.0,8.0,89,0.00,CLR,,0.00,WeatherDisplay:10.37,2013-10-26 01:40:00,
2013-10-25 21:45:00,38.4,35.4,30.05,South,185,3.0,8.0,89,0.00,CLR,,0.00,WeatherDisplay:10.37,2013-10-26 01:45:00,
2013-10-25 21:50:00,38.4,35.4,30.04,South,176,3.0,6.0,89,0.00,CLR,,0.00,WeatherDisplay:10.37,2013-10-26 01:50:00,
2013-10-25 21:55:00,38.5,35.5,30.04,South,175,3.0,7.0,89,0.00,CLR,,0.00,WeatherDisplay:10.37,2013-10-26 01:55:00,
2013-10-25 22:00:00,38.5,35.5,30.04,SSE,168,3.0,8.0,89,0.00,CLR,,0.00,WeatherDisplay:10.37,2013-10-26 02:00:00,
2013-10-25 22:05:00,38.5,35.5,30.04,South,169,3.0,7.0,89,0.00,CLR,,0.00,WeatherDisplay:10.37,2013-10-26 02:05:00,
2013-10-25 22:10:00,38.7,35.5,30.03,South,170,3.0,9.0,88,0.00,CLR,,0.00,WeatherDisplay:10.37,2013-10-26 02:10:00,
2013-10-25 22:15:00,38.7,35.5,30.03,South,172,3.0,6.0,88,0.00,CLR,,0.00,WeatherDisplay:10.37,2013-10-26 02:15:00,
2013-10-25 22:20:00,38.7,35.5,30.03,South,179,2.0,6.0,88,0.00,CLR,,0.00,WeatherDisplay:10.37,2013-10-26 02:20:00,
2013-10-25 22:25:00,38.5,35.3,30.02,South,181,1.0,4.0,88,0.02,RA,,0.02,WeatherDisplay:10.37,2013-10-26 02:25:00,
2013-10-25 22:30:00,38.3,35.1,30.02,South,174,3.0,6.0,88,0.03,RA,,0.03,WeatherDisplay:10.37,2013-10-26 02:30:00,
2013-10-25 22:35:00,38.3,35.3,30.02,South,176,3.0,4.0,89,0.02,RA,,0.04,WeatherDisplay:10.37,2013-10-26 02:35:00,
2013-10-25 22:40:00,38.2,35.2,30.02,South,176,2.0,7.0,89,0.02,RA,,0.05,WeatherDisplay:10.37,2013-10-26 02:40:00,
2013-10-25 22:45:00,38.1,35.1,30.01,SSE,166,3.0,6.0,89,0.01,RA,,0.05,WeatherDisplay:10.37,2013-10-26 02:45:00,
2013-10-25 22:50:00,38.1,35.4,30.01,SSE,162,3.0,6.0,90,0.01,RA,,0.06,WeatherDisplay:10.37,2013-10-26 02:50:00,
2013-10-25 22:55:00,38.2,35.5,30.01,SSE,160,0.0,4.0,90,0.01,RA,,0.06,WeatherDisplay:10.37,2013-10-26 02:55:00,
2013-10-25 23:00:00,38.1,35.4,30.00,SSE,167,3.0,10.0,90,0.01,RA,,0.07,WeatherDisplay:10.37,2013-10-26 03:00:00,
2013-10-25 23:05:00,38.2,35.5,30.00,South,176,3.0,7.0,90,0.01,RA,,0.07,WeatherDisplay:10.37,2013-10-26 03:05:00,
2013-10-25 23:10:00,38.2,35.2,30.00,South,173,3.0,7.0,89,0.01,RA,,0.08,WeatherDisplay:10.37,2013-10-26 03:10:00,
2013-10-25 23:15:00,38.1,35.1,30.00,South,183,3.0,11.0,89,0.02,RA,,0.09,WeatherDisplay:10.37,2013-10-26 03:15:00,
2013-10-25 23:20:00,38.1,35.1,29.99,SSW,199,6.0,13.0,89,0.01,RA,,0.09,WeatherDisplay:10.37,2013-10-26 03:20:00,
2013-10-25 23:25:00,38.1,35.1,29.99,South,186,6.0,11.0,89,0.01,RA,,0.10,WeatherDisplay:10.37,2013-10-26 03:25:00,
2013-10-25 23:30:00,38.1,35.1,29.99,South,178,6.0,9.0,89,0.02,RA,,0.11,WeatherDisplay:10.37,2013-10-26 03:30:00,
2013-10-25 23:35:00,38.1,35.1,29.99,South,185,3.0,11.0,89,0.02,RA,,0.12,WeatherDisplay:10.37,2013-10-26 03:35:00,
2013-10-25 23:40:00,38.1,35.1,29.98,South,182,3.0,11.0,89,0.01,RA,,0.12,WeatherDisplay:10.37,2013-10-26 03:40:00,
2013-10-25 23:45:00,38.0,34.8,29.98,South,185,2.0,8.0,88,0.00,CLR,,0.12,WeatherDisplay:10.37,2013-10-26 03:45:00,
2013-10-25 23:50:00,38.1,34.9,29.98,South,187,6.0,11.0,88,0.01,RA,,0.13,WeatherDisplay:10.37,2013-10-26 03:50:00,
2013-10-25 23:55:00,38.2,34.7,29.97,SSW,196,5.0,10.0,87,0.01,RA,,0.13,WeatherDisplay:10.37,2013-10-26 03:55:00,